Keene, Canada
Current Conditions -  °F | °C
As of 7:00 PM on Saturday 22 Nov 2014 (Local Time) from CYPQ Reporting Station
Haze Haze  
Wind Chill: 34°   Ceiling: 500
Heat Index: 39°   Visibility: 3mi
Dew Point: 37°   Wind: 8mph
Humidity: 93%   Direction: 220°SW
Pressure: 29.91"   Gusts: NA
Location:  44.24°N, 78.16°W
Report Text: CYPQ 230000Z AUTO 22007KT 3SM BR OVC005 04/03 A2991 RMK SLP136
Loading
Personal Weather Stations






























Interactive Weather Map New forecast layout! Learn more

10-Day Weather Forecast

Advertisements
Track Severe Weather on mobile